Main page
METAR-TAF:

METAR-TAF

Airports :

Algona Municipal Airport

Algona, Iowa, United States

latitude: 43-05N, longitude: 094-16W, elevation: 1220 ft

Current weather observation

The report was made 27 minutes ago, at 21:55 UTC
Wind 20 mph from the South/Southeast
Temperature 63°F
Humidity 55%
Pressure 29.84 in. Hg
Visibility: 10 miles
Clear sky

METAR: KAXA 012155Z AUTO 16017KT 10SM CLR 17/08 A2984 RMK A01

Time: 17:22 (22:22 UTC)


TAF: missing

Weather observations and forecasts of more than 4000 airports (METAR and TAF reports).

The available stations are represented by yellow and red dots on the map.

Hover mouse over dot to see the name of the station.

Then click to see weather observations and forecasts.

To change the map : click on the green buttons with a black cross to zoom in, on the green button with a dash to zoom out, or on the green arrows for adjacent maps.


METAR-TAF: